sensor_id;sensor_type;location;lat;lon;timestamp;P1;durP1;ratioP1;P2;durP2;ratioP2
8092;SDS011;4089;52.420;13.334;2023-05-07T00:01:27;40.27;;;18.00;;
8092;SDS011;4089;52.420;13.334;2023-05-07T00:03:54;43.90;;;18.37;;
8092;SDS011;4089;52.420;13.334;2023-05-07T00:06:21;42.33;;;18.50;;
8092;SDS011;4089;52.420;13.334;2023-05-07T00:08:48;46.67;;;18.47;;
8092;SDS011;4089;52.420;13.334;2023-05-07T00:11:15;43.40;;;19.90;;
8092;SDS011;4089;52.420;13.334;2023-05-07T00:13:42;37.83;;;18.53;;
8092;SDS011;4089;52.420;13.334;2023-05-07T00:16:09;45.83;;;19.67;;
8092;SDS011;4089;52.420;13.334;2023-05-07T00:18:36;42.50;;;18.80;;
8092;SDS011;4089;52.420;13.334;2023-05-07T00:21:02;43.00;;;18.47;;
8092;SDS011;4089;52.420;13.334;2023-05-07T00:23:29;40.03;;;17.93;;
8092;SDS011;4089;52.420;13.334;2023-05-07T00:25:56;41.00;;;19.07;;
8092;SDS011;4089;52.420;13.334;2023-05-07T00:28:23;42.23;;;18.97;;
8092;SDS011;4089;52.420;13.334;2023-05-07T00:30:49;40.07;;;16.03;;
8092;SDS011;4089;52.420;13.334;2023-05-07T00:33:16;39.37;;;16.57;;
8092;SDS011;4089;52.420;13.334;2023-05-07T00:35:43;42.57;;;16.30;;
8092;SDS011;4089;52.420;13.334;2023-05-07T00:38:10;36.37;;;16.30;;
8092;SDS011;4089;52.420;13.334;2023-05-07T00:40:37;34.00;;;14.90;;
8092;SDS011;4089;52.420;13.334;2023-05-07T00:43:04;34.73;;;15.30;;
8092;SDS011;4089;52.420;13.334;2023-05-07T00:45:31;31.70;;;14.30;;
8092;SDS011;4089;52.420;13.334;2023-05-07T00:47:59;38.70;;;15.00;;
8092;SDS011;4089;52.420;13.334;2023-05-07T00:50:27;31.50;;;12.90;;
8092;SDS011;4089;52.420;13.334;2023-05-07T00:52:55;40.17;;;13.43;;
8092;SDS011;4089;52.420;13.334;2023-05-07T00:55:23;31.00;;;13.40;;
8092;SDS011;4089;52.420;13.334;2023-05-07T00:57:50;31.07;;;12.30;;
8092;SDS011;4089;52.420;13.334;2023-05-07T01:00:17;30.77;;;12.13;;
8092;SDS011;4089;52.420;13.334;2023-05-07T01:02:44;29.83;;;11.80;;
8092;SDS011;4089;52.420;13.334;2023-05-07T01:05:14;31.37;;;12.47;;
8092;SDS011;4089;52.420;13.334;2023-05-07T01:07:44;30.90;;;12.33;;
8092;SDS011;4089;52.420;13.334;2023-05-07T01:10:11;32.97;;;12.33;;
8092;SDS011;4089;52.420;13.334;2023-05-07T01:12:39;29.50;;;12.10;;
8092;SDS011;4089;52.420;13.334;2023-05-07T01:15:07;29.10;;;11.20;;
8092;SDS011;4089;52.420;13.334;2023-05-07T01:17:35;25.80;;;10.27;;
8092;SDS011;4089;52.420;13.334;2023-05-07T01:20:06;27.57;;;9.80;;
8092;SDS011;4089;52.420;13.334;2023-05-07T01:22:35;35.20;;;11.30;;
8092;SDS011;4089;52.420;13.334;2023-05-07T01:25:06;27.10;;;10.73;;
8092;SDS011;4089;52.420;13.334;2023-05-07T01:27:34;28.97;;;11.37;;
8092;SDS011;4089;52.420;13.334;2023-05-07T01:30:06;28.07;;;11.30;;
8092;SDS011;4089;52.420;13.334;2023-05-07T01:35:32;27.27;;;10.50;;
8092;SDS011;4089;52.420;13.334;2023-05-07T01:38:02;26.93;;;11.27;;
8092;SDS011;4089;52.420;13.334;2023-05-07T01:40:30;32.60;;;12.27;;
8092;SDS011;4089;52.420;13.334;2023-05-07T01:42:57;28.30;;;11.70;;
8092;SDS011;4089;52.420;13.334;2023-05-07T01:45:24;32.83;;;11.47;;
8092;SDS011;4089;52.420;13.334;2023-05-07T01:47:52;30.17;;;12.50;;
8092;SDS011;4089;52.420;13.334;2023-05-07T01:50:19;33.63;;;12.20;;
8092;SDS011;4089;52.420;13.334;2023-05-07T01:52:47;34.83;;;12.40;;
8092;SDS011;4089;52.420;13.334;2023-05-07T01:55:16;32.40;;;11.03;;
8092;SDS011;4089;52.420;13.334;2023-05-07T01:57:43;32.70;;;12.10;;
8092;SDS011;4089;52.420;13.334;2023-05-07T02:00:11;30.13;;;11.57;;
8092;SDS011;4089;52.420;13.334;2023-05-07T02:02:38;31.90;;;14.53;;
8092;SDS011;4089;52.420;13.334;2023-05-07T02:05:05;31.07;;;13.00;;
8092;SDS011;4089;52.420;13.334;2023-05-07T02:07:32;37.33;;;13.90;;
8092;SDS011;4089;52.420;13.334;2023-05-07T02:09:59;31.03;;;12.30;;
8092;SDS011;4089;52.420;13.334;2023-05-07T02:12:26;32.30;;;12.80;;
8092;SDS011;4089;52.420;13.334;2023-05-07T02:14:53;35.17;;;13.13;;
8092;SDS011;4089;52.420;13.334;2023-05-07T02:17:19;30.87;;;12.40;;
8092;SDS011;4089;52.420;13.334;2023-05-07T02:19:47;30.13;;;12.30;;
8092;SDS011;4089;52.420;13.334;2023-05-07T02:22:14;30.10;;;13.00;;
8092;SDS011;4089;52.420;13.334;2023-05-07T02:24:41;34.03;;;12.93;;
8092;SDS011;4089;52.420;13.334;2023-05-07T02:27:08;30.20;;;12.13;;
8092;SDS011;4089;52.420;13.334;2023-05-07T02:29:35;30.00;;;12.97;;
8092;SDS011;4089;52.420;13.334;2023-05-07T02:32:02;31.33;;;12.93;;
8092;SDS011;4089;52.420;13.334;2023-05-07T02:34:29;29.57;;;11.03;;
8092;SDS011;4089;52.420;13.334;2023-05-07T02:36:55;32.30;;;14.30;;
8092;SDS011;4089;52.420;13.334;2023-05-07T02:39:22;33.10;;;13.73;;
8092;SDS011;4089;52.420;13.334;2023-05-07T02:41:49;29.40;;;12.13;;
8092;SDS011;4089;52.420;13.334;2023-05-07T02:44:16;32.33;;;13.00;;
8092;SDS011;4089;52.420;13.334;2023-05-07T02:46:43;34.30;;;13.00;;
8092;SDS011;4089;52.420;13.334;2023-05-07T02:49:09;30.27;;;12.70;;
8092;SDS011;4089;52.420;13.334;2023-05-07T02:51:36;31.67;;;12.10;;
8092;SDS011;4089;52.420;13.334;2023-05-07T02:54:03;29.57;;;11.87;;
8092;SDS011;4089;52.420;13.334;2023-05-07T02:56:30;29.27;;;12.03;;
8092;SDS011;4089;52.420;13.334;2023-05-07T02:58:57;28.20;;;11.97;;
8092;SDS011;4089;52.420;13.334;2023-05-07T03:01:24;31.30;;;11.97;;
8092;SDS011;4089;52.420;13.334;2023-05-07T03:03:51;31.20;;;12.07;;
8092;SDS011;4089;52.420;13.334;2023-05-07T03:06:18;28.23;;;11.27;;
8092;SDS011;4089;52.420;13.334;2023-05-07T03:08:45;27.27;;;10.80;;
8092;SDS011;4089;52.420;13.334;2023-05-07T03:11:12;38.90;;;12.30;;
8092;SDS011;4089;52.420;13.334;2023-05-07T03:13:39;29.60;;;12.60;;
8092;SDS011;4089;52.420;13.334;2023-05-07T03:16:05;30.60;;;12.40;;
8092;SDS011;4089;52.420;13.334;2023-05-07T03:18:32;31.27;;;12.40;;
8092;SDS011;4089;52.420;13.334;2023-05-07T03:20:59;30.30;;;11.30;;
8092;SDS011;4089;52.420;13.334;2023-05-07T03:23:26;27.97;;;11.07;;
8092;SDS011;4089;52.420;13.334;2023-05-07T03:25:53;29.57;;;11.67;;
8092;SDS011;4089;52.420;13.334;2023-05-07T03:28:20;26.10;;;10.87;;
8092;SDS011;4089;52.420;13.334;2023-05-07T03:30:46;32.43;;;11.50;;
8092;SDS011;4089;52.420;13.334;2023-05-07T03:33:13;28.10;;;11.80;;
8092;SDS011;4089;52.420;13.334;2023-05-07T03:35:40;30.83;;;11.57;;
8092;SDS011;4089;52.420;13.334;2023-05-07T03:38:07;32.27;;;12.83;;
8092;SDS011;4089;52.420;13.334;2023-05-07T03:40:34;27.70;;;11.20;;
8092;SDS011;4089;52.420;13.334;2023-05-07T03:43:01;28.63;;;11.90;;
8092;SDS011;4089;52.420;13.334;2023-05-07T03:45:27;31.50;;;12.13;;
8092;SDS011;4089;52.420;13.334;2023-05-07T03:47:54;32.30;;;12.90;;
8092;SDS011;4089;52.420;13.334;2023-05-07T03:50:21;30.37;;;12.30;;
8092;SDS011;4089;52.420;13.334;2023-05-07T03:52:48;32.37;;;12.03;;
8092;SDS011;4089;52.420;13.334;2023-05-07T03:55:15;31.77;;;12.20;;
8092;SDS011;4089;52.420;13.334;2023-05-07T03:57:41;35.33;;;13.33;;
8092;SDS011;4089;52.420;13.334;2023-05-07T04:00:08;30.47;;;11.90;;
8092;SDS011;4089;52.420;13.334;2023-05-07T04:02:36;28.77;;;11.67;;
8092;SDS011;4089;52.420;13.334;2023-05-07T04:05:03;30.60;;;10.40;;
8092;SDS011;4089;52.420;13.334;2023-05-07T04:07:30;30.10;;;12.30;;
8092;SDS011;4089;52.420;13.334;2023-05-07T04:09:57;31.37;;;12.30;;
8092;SDS011;4089;52.420;13.334;2023-05-07T04:12:24;32.77;;;12.20;;
8092;SDS011;4089;52.420;13.334;2023-05-07T04:14:50;29.07;;;11.27;;
8092;SDS011;4089;52.420;13.334;2023-05-07T04:17:17;31.07;;;12.10;;
8092;SDS011;4089;52.420;13.334;2023-05-07T04:19:44;29.63;;;12.77;;
8092;SDS011;4089;52.420;13.334;2023-05-07T04:22:12;29.30;;;12.93;;
8092;SDS011;4089;52.420;13.334;2023-05-07T04:24:38;30.90;;;14.30;;
8092;SDS011;4089;52.420;13.334;2023-05-07T04:27:05;32.70;;;13.43;;
8092;SDS011;4089;52.420;13.334;2023-05-07T04:29:32;32.83;;;13.27;;
8092;SDS011;4089;52.420;13.334;2023-05-07T04:31:59;34.00;;;14.00;;
8092;SDS011;4089;52.420;13.334;2023-05-07T04:34:26;30.20;;;12.93;;
8092;SDS011;4089;52.420;13.334;2023-05-07T04:36:53;31.00;;;13.67;;
8092;SDS011;4089;52.420;13.334;2023-05-07T04:39:20;34.60;;;12.20;;
8092;SDS011;4089;52.420;13.334;2023-05-07T04:41:47;30.00;;;12.77;;
8092;SDS011;4089;52.420;13.334;2023-05-07T04:44:13;30.60;;;12.70;;
8092;SDS011;4089;52.420;13.334;2023-05-07T04:46:40;31.97;;;12.50;;
8092;SDS011;4089;52.420;13.334;2023-05-07T04:49:07;27.57;;;10.60;;
8092;SDS011;4089;52.420;13.334;2023-05-07T04:51:34;30.97;;;11.20;;
8092;SDS011;4089;52.420;13.334;2023-05-07T04:54:01;25.93;;;10.50;;
8092;SDS011;4089;52.420;13.334;2023-05-07T04:56:28;26.83;;;10.77;;
8092;SDS011;4089;52.420;13.334;2023-05-07T04:58:56;35.87;;;10.40;;
8092;SDS011;4089;52.420;13.334;2023-05-07T05:01:22;26.87;;;10.57;;
8092;SDS011;4089;52.420;13.334;2023-05-07T05:03:49;28.80;;;10.40;;
8092;SDS011;4089;52.420;13.334;2023-05-07T05:06:16;30.03;;;11.77;;
8092;SDS011;4089;52.420;13.334;2023-05-07T05:08:43;27.93;;;11.50;;
8092;SDS011;4089;52.420;13.334;2023-05-07T05:11:10;27.63;;;9.77;;
8092;SDS011;4089;52.420;13.334;2023-05-07T05:13:37;25.53;;;9.33;;
8092;SDS011;4089;52.420;13.334;2023-05-07T05:16:04;26.67;;;9.93;;
8092;SDS011;4089;52.420;13.334;2023-05-07T05:18:32;27.67;;;9.73;;
8092;SDS011;4089;52.420;13.334;2023-05-07T05:20:59;28.07;;;9.57;;
8092;SDS011;4089;52.420;13.334;2023-05-07T05:23:26;27.30;;;10.20;;
8092;SDS011;4089;52.420;13.334;2023-05-07T05:25:57;27.87;;;9.23;;
8092;SDS011;4089;52.420;13.334;2023-05-07T05:28:24;25.13;;;9.40;;
8092;SDS011;4089;52.420;13.334;2023-05-07T05:30:50;28.40;;;9.43;;
8092;SDS011;4089;52.420;13.334;2023-05-07T05:33:17;25.07;;;9.13;;
8092;SDS011;4089;52.420;13.334;2023-05-07T05:35:44;26.90;;;9.63;;
8092;SDS011;4089;52.420;13.334;2023-05-07T05:38:11;27.60;;;9.20;;
8092;SDS011;4089;52.420;13.334;2023-05-07T05:40:38;23.10;;;8.37;;
8092;SDS011;4089;52.420;13.334;2023-05-07T05:43:05;31.83;;;9.30;;
8092;SDS011;4089;52.420;13.334;2023-05-07T05:45:32;25.80;;;9.53;;
8092;SDS011;4089;52.420;13.334;2023-05-07T05:47:59;24.83;;;8.03;;
8092;SDS011;4089;52.420;13.334;2023-05-07T05:50:26;23.33;;;7.73;;
8092;SDS011;4089;52.420;13.334;2023-05-07T05:52:53;24.60;;;7.40;;
8092;SDS011;4089;52.420;13.334;2023-05-07T05:55:20;25.13;;;7.73;;
8092;SDS011;4089;52.420;13.334;2023-05-07T05:57:48;26.47;;;7.80;;
8092;SDS011;4089;52.420;13.334;2023-05-07T06:00:14;26.90;;;8.07;;
8092;SDS011;4089;52.420;13.334;2023-05-07T06:02:42;24.27;;;6.83;;
8092;SDS011;4089;52.420;13.334;2023-05-07T06:05:09;24.40;;;7.17;;
8092;SDS011;4089;52.420;13.334;2023-05-07T06:07:36;22.60;;;6.73;;
8092;SDS011;4089;52.420;13.334;2023-05-07T06:10:03;25.73;;;6.87;;
8092;SDS011;4089;52.420;13.334;2023-05-07T06:12:30;22.30;;;6.60;;
8092;SDS011;4089;52.420;13.334;2023-05-07T06:14:57;20.87;;;6.30;;
8092;SDS011;4089;52.420;13.334;2023-05-07T06:17:24;24.80;;;7.70;;
8092;SDS011;4089;52.420;13.334;2023-05-07T06:19:51;24.43;;;6.40;;
8092;SDS011;4089;52.420;13.334;2023-05-07T06:22:19;23.87;;;7.47;;
8092;SDS011;4089;52.420;13.334;2023-05-07T06:24:45;23.30;;;6.60;;
8092;SDS011;4089;52.420;13.334;2023-05-07T06:27:12;22.67;;;6.30;;
8092;SDS011;4089;52.420;13.334;2023-05-07T06:29:39;22.67;;;6.57;;
8092;SDS011;4089;52.420;13.334;2023-05-07T06:32:13;23.37;;;6.50;;
8092;SDS011;4089;52.420;13.334;2023-05-07T06:34:40;25.87;;;6.90;;
8092;SDS011;4089;52.420;13.334;2023-05-07T06:37:07;22.93;;;7.17;;
8092;SDS011;4089;52.420;13.334;2023-05-07T06:39:34;24.23;;;6.80;;
8092;SDS011;4089;52.420;13.334;2023-05-07T06:42:01;26.40;;;7.23;;
8092;SDS011;4089;52.420;13.334;2023-05-07T06:44:28;23.27;;;6.70;;
8092;SDS011;4089;52.420;13.334;2023-05-07T06:46:55;21.93;;;6.30;;
8092;SDS011;4089;52.420;13.334;2023-05-07T06:49:23;27.90;;;7.40;;
8092;SDS011;4089;52.420;13.334;2023-05-07T06:51:49;25.30;;;7.40;;
8092;SDS011;4089;52.420;13.334;2023-05-07T06:54:16;24.27;;;6.93;;
8092;SDS011;4089;52.420;13.334;2023-05-07T06:56:43;25.63;;;7.13;;
8092;SDS011;4089;52.420;13.334;2023-05-07T06:59:10;25.50;;;7.70;;
8092;SDS011;4089;52.420;13.334;2023-05-07T07:01:37;22.43;;;7.20;;
8092;SDS011;4089;52.420;13.334;2023-05-07T07:04:04;25.17;;;7.10;;
8092;SDS011;4089;52.420;13.334;2023-05-07T07:06:30;24.27;;;7.17;;
8092;SDS011;4089;52.420;13.334;2023-05-07T07:08:58;25.30;;;7.37;;
8092;SDS011;4089;52.420;13.334;2023-05-07T07:11:26;24.20;;;7.40;;
8092;SDS011;4089;52.420;13.334;2023-05-07T07:13:52;23.83;;;7.80;;
8092;SDS011;4089;52.420;13.334;2023-05-07T07:16:21;26.53;;;6.90;;
8092;SDS011;4089;52.420;13.334;2023-05-07T07:18:48;26.30;;;6.93;;
8092;SDS011;4089;52.420;13.334;2023-05-07T07:21:15;28.80;;;8.07;;
8092;SDS011;4089;52.420;13.334;2023-05-07T07:23:42;22.90;;;7.17;;
8092;SDS011;4089;52.420;13.334;2023-05-07T07:26:08;27.40;;;8.63;;
8092;SDS011;4089;52.420;13.334;2023-05-07T07:28:41;24.90;;;7.40;;
8092;SDS011;4089;52.420;13.334;2023-05-07T07:31:10;24.10;;;7.10;;
8092;SDS011;4089;52.420;13.334;2023-05-07T07:33:38;26.70;;;7.37;;
8092;SDS011;4089;52.420;13.334;2023-05-07T07:36:05;25.70;;;7.33;;
8092;SDS011;4089;52.420;13.334;2023-05-07T07:38:33;24.70;;;7.13;;
8092;SDS011;4089;52.420;13.334;2023-05-07T07:41:00;23.60;;;7.10;;
8092;SDS011;4089;52.420;13.334;2023-05-07T07:43:27;25.93;;;6.07;;
8092;SDS011;4089;52.420;13.334;2023-05-07T07:45:55;24.10;;;6.37;;
8092;SDS011;4089;52.420;13.334;2023-05-07T07:48:21;24.60;;;5.73;;
8092;SDS011;4089;52.420;13.334;2023-05-07T07:50:49;23.57;;;6.70;;
8092;SDS011;4089;52.420;13.334;2023-05-07T07:53:17;23.77;;;6.10;;
8092;SDS011;4089;52.420;13.334;2023-05-07T07:55:44;23.47;;;5.97;;
8092;SDS011;4089;52.420;13.334;2023-05-07T07:58:11;22.30;;;6.00;;
8092;SDS011;4089;52.420;13.334;2023-05-07T08:00:38;22.57;;;5.50;;
8092;SDS011;4089;52.420;13.334;2023-05-07T08:03:05;25.00;;;5.90;;
8092;SDS011;4089;52.420;13.334;2023-05-07T08:05:33;21.70;;;5.30;;
8092;SDS011;4089;52.420;13.334;2023-05-07T08:08:00;22.67;;;5.97;;
8092;SDS011;4089;52.420;13.334;2023-05-07T08:10:27;22.47;;;5.40;;
8092;SDS011;4089;52.420;13.334;2023-05-07T08:12:54;23.20;;;5.10;;
8092;SDS011;4089;52.420;13.334;2023-05-07T08:15:21;22.30;;;5.20;;
8092;SDS011;4089;52.420;13.334;2023-05-07T08:17:47;23.50;;;5.37;;
8092;SDS011;4089;52.420;13.334;2023-05-07T08:20:14;23.67;;;5.30;;
8092;SDS011;4089;52.420;13.334;2023-05-07T08:22:41;20.53;;;4.30;;
8092;SDS011;4089;52.420;13.334;2023-05-07T08:25:08;21.73;;;4.63;;
8092;SDS011;4089;52.420;13.334;2023-05-07T08:27:35;22.70;;;4.50;;
8092;SDS011;4089;52.420;13.334;2023-05-07T08:30:03;22.27;;;4.13;;
8092;SDS011;4089;52.420;13.334;2023-05-07T08:32:30;21.57;;;4.33;;
8092;SDS011;4089;52.420;13.334;2023-05-07T08:34:57;23.30;;;4.90;;
8092;SDS011;4089;52.420;13.334;2023-05-07T08:37:24;21.93;;;4.47;;
8092;SDS011;4089;52.420;13.334;2023-05-07T08:39:51;26.03;;;4.00;;
8092;SDS011;4089;52.420;13.334;2023-05-07T08:42:18;21.53;;;4.10;;
8092;SDS011;4089;52.420;13.334;2023-05-07T08:44:46;23.80;;;4.00;;
8092;SDS011;4089;52.420;13.334;2023-05-07T08:47:19;27.23;;;4.10;;
8092;SDS011;4089;52.420;13.334;2023-05-07T08:49:48;21.80;;;3.90;;
8092;SDS011;4089;52.420;13.334;2023-05-07T08:52:16;22.70;;;5.00;;
8092;SDS011;4089;52.420;13.334;2023-05-07T08:54:45;20.50;;;3.50;;
8092;SDS011;4089;52.420;13.334;2023-05-07T08:57:12;22.67;;;3.53;;
8092;SDS011;4089;52.420;13.334;2023-05-07T08:59:39;22.57;;;3.57;;
8092;SDS011;4089;52.420;13.334;2023-05-07T09:02:07;20.97;;;3.80;;
8092;SDS011;4089;52.420;13.334;2023-05-07T09:04:36;21.87;;;4.10;;
8092;SDS011;4089;52.420;13.334;2023-05-07T09:07:03;22.57;;;3.60;;
8092;SDS011;4089;52.420;13.334;2023-05-07T09:09:34;23.87;;;3.00;;
8092;SDS011;4089;52.420;13.334;2023-05-07T09:12:01;24.50;;;3.60;;
8092;SDS011;4089;52.420;13.334;2023-05-07T09:14:29;23.10;;;3.00;;
8092;SDS011;4089;52.420;13.334;2023-05-07T09:16:56;22.23;;;3.03;;
8092;SDS011;4089;52.420;13.334;2023-05-07T09:19:24;29.20;;;3.07;;
8092;SDS011;4089;52.420;13.334;2023-05-07T09:21:58;21.27;;;2.33;;
8092;SDS011;4089;52.420;13.334;2023-05-07T09:24:26;20.20;;;2.70;;
8092;SDS011;4089;52.420;13.334;2023-05-07T09:26:55;21.23;;;2.90;;
8092;SDS011;4089;52.420;13.334;2023-05-07T09:29:24;19.80;;;2.30;;
8092;SDS011;4089;52.420;13.334;2023-05-07T09:31:51;20.80;;;2.60;;
8092;SDS011;4089;52.420;13.334;2023-05-07T09:34:18;21.13;;;2.70;;
8092;SDS011;4089;52.420;13.334;2023-05-07T09:36:45;22.20;;;2.90;;
8092;SDS011;4089;52.420;13.334;2023-05-07T09:39:12;23.50;;;3.20;;
8092;SDS011;4089;52.420;13.334;2023-05-07T09:41:48;20.27;;;2.60;;
8092;SDS011;4089;52.420;13.334;2023-05-07T09:44:15;22.40;;;2.60;;
8092;SDS011;4089;52.420;13.334;2023-05-07T09:46:43;23.10;;;2.53;;
8092;SDS011;4089;52.420;13.334;2023-05-07T09:49:11;20.17;;;2.57;;
8092;SDS011;4089;52.420;13.334;2023-05-07T09:51:48;20.00;;;2.40;;
8092;SDS011;4089;52.420;13.334;2023-05-07T09:54:17;20.77;;;2.40;;
8092;SDS011;4089;52.420;13.334;2023-05-07T09:56:44;24.83;;;2.20;;
8092;SDS011;4089;52.420;13.334;2023-05-07T09:59:12;21.10;;;3.00;;
8092;SDS011;4089;52.420;13.334;2023-05-07T10:01:41;21.63;;;2.50;;
8092;SDS011;4089;52.420;13.334;2023-05-07T10:04:10;21.30;;;2.27;;
8092;SDS011;4089;52.420;13.334;2023-05-07T10:06:37;20.30;;;2.40;;
8092;SDS011;4089;52.420;13.334;2023-05-07T10:09:05;21.20;;;2.20;;
8092;SDS011;4089;52.420;13.334;2023-05-07T10:11:32;21.20;;;2.50;;
8092;SDS011;4089;52.420;13.334;2023-05-07T10:14:00;23.30;;;3.10;;
8092;SDS011;4089;52.420;13.334;2023-05-07T10:16:31;26.03;;;2.90;;
8092;SDS011;4089;52.420;13.334;2023-05-07T10:19:05;20.33;;;2.13;;
8092;SDS011;4089;52.420;13.334;2023-05-07T10:21:35;20.80;;;1.90;;
8092;SDS011;4089;52.420;13.334;2023-05-07T10:24:12;21.60;;;2.33;;
8092;SDS011;4089;52.420;13.334;2023-05-07T10:26:47;21.57;;;2.23;;
8092;SDS011;4089;52.420;13.334;2023-05-07T10:31:59;21.70;;;2.23;;
8092;SDS011;4089;52.420;13.334;2023-05-07T10:34:42;21.27;;;2.13;;
8092;SDS011;4089;52.420;13.334;2023-05-07T10:37:11;21.90;;;2.23;;
8092;SDS011;4089;52.420;13.334;2023-05-07T10:39:39;21.73;;;2.30;;
8092;SDS011;4089;52.420;13.334;2023-05-07T10:42:10;21.83;;;2.30;;
8092;SDS011;4089;52.420;13.334;2023-05-07T10:44:38;20.83;;;1.70;;
8092;SDS011;4089;52.420;13.334;2023-05-07T10:50:21;21.60;;;2.20;;
8092;SDS011;4089;52.420;13.334;2023-05-07T10:52:31;20.90;;;2.17;;
8092;SDS011;4089;52.420;13.334;2023-05-07T10:55:19;23.40;;;2.50;;
8092;SDS011;4089;52.420;13.334;2023-05-07T10:57:47;22.43;;;2.10;;
8092;SDS011;4089;52.420;13.334;2023-05-07T11:03:04;21.73;;;1.97;;
8092;SDS011;4089;52.420;13.334;2023-05-07T11:05:33;24.00;;;2.20;;
8092;SDS011;4089;52.420;13.334;2023-05-07T11:08:04;20.70;;;1.87;;
8092;SDS011;4089;52.420;13.334;2023-05-07T11:13:18;21.30;;;2.10;;
8092;SDS011;4089;52.420;13.334;2023-05-07T11:16:15;21.90;;;2.13;;
8092;SDS011;4089;52.420;13.334;2023-05-07T11:18:50;23.30;;;1.80;;
8092;SDS011;4089;52.420;13.334;2023-05-07T11:24:02;20.70;;;1.73;;
8092;SDS011;4089;52.420;13.334;2023-05-07T11:26:31;22.90;;;2.40;;
8092;SDS011;4089;52.420;13.334;2023-05-07T11:29:27;20.80;;;1.97;;
8092;SDS011;4089;52.420;13.334;2023-05-07T11:31:55;21.40;;;1.90;;
8092;SDS011;4089;52.420;13.334;2023-05-07T11:34:23;22.87;;;2.40;;
8092;SDS011;4089;52.420;13.334;2023-05-07T11:36:51;20.97;;;2.00;;
8092;SDS011;4089;52.420;13.334;2023-05-07T11:39:26;21.90;;;2.10;;
8092;SDS011;4089;52.420;13.334;2023-05-07T11:41:54;21.40;;;2.30;;
8092;SDS011;4089;52.420;13.334;2023-05-07T11:44:21;21.03;;;2.00;;
8092;SDS011;4089;52.420;13.334;2023-05-07T11:46:48;21.57;;;2.00;;
8092;SDS011;4089;52.420;13.334;2023-05-07T11:49:15;21.40;;;2.23;;
8092;SDS011;4089;52.420;13.334;2023-05-07T11:51:42;23.37;;;2.57;;
8092;SDS011;4089;52.420;13.334;2023-05-07T11:54:09;20.77;;;1.80;;
8092;SDS011;4089;52.420;13.334;2023-05-07T11:56:37;21.87;;;2.40;;
8092;SDS011;4089;52.420;13.334;2023-05-07T11:59:05;21.17;;;2.30;;
8092;SDS011;4089;52.420;13.334;2023-05-07T12:01:34;21.00;;;2.17;;
8092;SDS011;4089;52.420;13.334;2023-05-07T12:04:02;22.23;;;2.10;;
8092;SDS011;4089;52.420;13.334;2023-05-07T12:06:35;22.10;;;2.43;;
8092;SDS011;4089;52.420;13.334;2023-05-07T12:09:03;25.20;;;2.20;;
8092;SDS011;4089;52.420;13.334;2023-05-07T12:11:33;36.53;;;2.40;;
8092;SDS011;4089;52.420;13.334;2023-05-07T12:14:00;23.23;;;2.00;;
8092;SDS011;4089;52.420;13.334;2023-05-07T12:16:27;24.03;;;2.27;;
8092;SDS011;4089;52.420;13.334;2023-05-07T12:18:55;24.03;;;2.23;;
8092;SDS011;4089;52.420;13.334;2023-05-07T12:21:22;28.33;;;2.20;;
8092;SDS011;4089;52.420;13.334;2023-05-07T12:23:50;22.47;;;1.53;;
8092;SDS011;4089;52.420;13.334;2023-05-07T12:26:18;22.07;;;1.80;;
8092;SDS011;4089;52.420;13.334;2023-05-07T12:28:47;24.03;;;2.00;;
8092;SDS011;4089;52.420;13.334;2023-05-07T12:31:14;24.13;;;2.27;;
8092;SDS011;4089;52.420;13.334;2023-05-07T12:33:42;22.80;;;2.47;;
8092;SDS011;4089;52.420;13.334;2023-05-07T12:36:11;22.30;;;2.00;;
8092;SDS011;4089;52.420;13.334;2023-05-07T12:38:39;23.93;;;2.00;;
8092;SDS011;4089;52.420;13.334;2023-05-07T12:41:07;22.83;;;2.00;;
8092;SDS011;4089;52.420;13.334;2023-05-07T12:43:36;22.17;;;1.80;;
8092;SDS011;4089;52.420;13.334;2023-05-07T12:46:05;22.27;;;1.67;;
8092;SDS011;4089;52.420;13.334;2023-05-07T12:48:33;22.40;;;1.93;;
8092;SDS011;4089;52.420;13.334;2023-05-07T12:51:00;22.30;;;2.10;;
8092;SDS011;4089;52.420;13.334;2023-05-07T12:53:28;30.70;;;2.30;;
8092;SDS011;4089;52.420;13.334;2023-05-07T12:55:56;24.43;;;2.03;;
8092;SDS011;4089;52.420;13.334;2023-05-07T13:00:55;22.97;;;1.60;;
8092;SDS011;4089;52.420;13.334;2023-05-07T13:03:27;23.10;;;2.80;;
8092;SDS011;4089;52.420;13.334;2023-05-07T13:06:00;25.13;;;3.10;;
8092;SDS011;4089;52.420;13.334;2023-05-07T13:08:32;22.60;;;2.53;;
8092;SDS011;4089;52.420;13.334;2023-05-07T13:11:00;22.10;;;1.83;;
8092;SDS011;4089;52.420;13.334;2023-05-07T13:13:33;22.90;;;1.90;;
8092;SDS011;4089;52.420;13.334;2023-05-07T13:16:02;22.37;;;1.90;;
8092;SDS011;4089;52.420;13.334;2023-05-07T13:18:30;28.90;;;2.30;;
8092;SDS011;4089;52.420;13.334;2023-05-07T13:20:58;23.07;;;2.00;;
8092;SDS011;4089;52.420;13.334;2023-05-07T13:23:26;23.13;;;1.87;;
8092;SDS011;4089;52.420;13.334;2023-05-07T13:25:53;24.07;;;2.10;;
8092;SDS011;4089;52.420;13.334;2023-05-07T13:28:22;22.10;;;1.97;;
8092;SDS011;4089;52.420;13.334;2023-05-07T13:30:52;22.33;;;1.53;;
8092;SDS011;4089;52.420;13.334;2023-05-07T13:33:21;21.50;;;1.60;;
8092;SDS011;4089;52.420;13.334;2023-05-07T13:35:48;23.97;;;1.83;;
8092;SDS011;4089;52.420;13.334;2023-05-07T13:38:14;24.57;;;1.87;;
8092;SDS011;4089;52.420;13.334;2023-05-07T13:40:42;23.90;;;2.37;;
8092;SDS011;4089;52.420;13.334;2023-05-07T13:43:09;22.60;;;2.20;;
8092;SDS011;4089;52.420;13.334;2023-05-07T13:45:36;23.40;;;2.23;;
8092;SDS011;4089;52.420;13.334;2023-05-07T13:48:04;23.10;;;1.70;;
8092;SDS011;4089;52.420;13.334;2023-05-07T13:50:31;22.80;;;1.80;;
8092;SDS011;4089;52.420;13.334;2023-05-07T13:52:57;24.03;;;2.10;;
8092;SDS011;4089;52.420;13.334;2023-05-07T13:55:24;22.13;;;2.00;;
8092;SDS011;4089;52.420;13.334;2023-05-07T13:57:58;24.53;;;1.80;;
8092;SDS011;4089;52.420;13.334;2023-05-07T14:00:26;22.60;;;1.30;;
8092;SDS011;4089;52.420;13.334;2023-05-07T14:02:54;22.73;;;1.37;;
8092;SDS011;4089;52.420;13.334;2023-05-07T14:05:22;24.23;;;1.80;;
8092;SDS011;4089;52.420;13.334;2023-05-07T14:07:54;23.70;;;2.00;;
8092;SDS011;4089;52.420;13.334;2023-05-07T14:10:23;26.73;;;1.90;;
8092;SDS011;4089;52.420;13.334;2023-05-07T14:12:50;22.90;;;1.50;;
8092;SDS011;4089;52.420;13.334;2023-05-07T14:15:17;24.30;;;1.93;;
8092;SDS011;4089;52.420;13.334;2023-05-07T14:17:44;23.10;;;1.53;;
8092;SDS011;4089;52.420;13.334;2023-05-07T14:20:12;25.83;;;1.60;;
8092;SDS011;4089;52.420;13.334;2023-05-07T14:22:39;23.20;;;1.73;;
8092;SDS011;4089;52.420;13.334;2023-05-07T14:25:06;23.10;;;1.60;;
8092;SDS011;4089;52.420;13.334;2023-05-07T14:27:33;25.53;;;2.07;;
8092;SDS011;4089;52.420;13.334;2023-05-07T14:30:00;26.17;;;2.30;;
8092;SDS011;4089;52.420;13.334;2023-05-07T14:32:27;24.83;;;1.80;;
8092;SDS011;4089;52.420;13.334;2023-05-07T14:34:54;24.20;;;1.73;;
8092;SDS011;4089;52.420;13.334;2023-05-07T14:37:21;27.77;;;2.00;;
8092;SDS011;4089;52.420;13.334;2023-05-07T14:39:48;24.40;;;1.70;;
8092;SDS011;4089;52.420;13.334;2023-05-07T14:42:16;26.70;;;1.60;;
8092;SDS011;4089;52.420;13.334;2023-05-07T14:44:43;24.40;;;1.70;;
8092;SDS011;4089;52.420;13.334;2023-05-07T14:47:12;23.27;;;1.70;;
8092;SDS011;4089;52.420;13.334;2023-05-07T14:49:39;23.47;;;1.40;;
8092;SDS011;4089;52.420;13.334;2023-05-07T14:52:07;24.53;;;1.90;;
8092;SDS011;4089;52.420;13.334;2023-05-07T14:54:36;25.20;;;1.93;;
8092;SDS011;4089;52.420;13.334;2023-05-07T14:57:04;25.13;;;1.83;;
8092;SDS011;4089;52.420;13.334;2023-05-07T14:59:32;23.73;;;1.70;;
8092;SDS011;4089;52.420;13.334;2023-05-07T15:01:59;23.00;;;1.40;;
8092;SDS011;4089;52.420;13.334;2023-05-07T15:04:30;23.63;;;1.80;;
8092;SDS011;4089;52.420;13.334;2023-05-07T15:06:57;24.70;;;1.90;;